createdAt,value
2018-08-03T00:01:19.419Z,65.31
2018-08-03T00:03:50.260Z,65.41
2018-08-03T00:06:21.248Z,64.87
2018-08-03T00:08:52.793Z,65.55
2018-08-03T00:11:23.480Z,64.81
2018-08-03T00:13:54.300Z,65.21
2018-08-03T00:16:25.373Z,64.83
2018-08-03T00:18:56.259Z,64.79
2018-08-03T00:21:27.284Z,65.36
2018-08-03T00:23:59.333Z,65.54
2018-08-03T00:26:29.234Z,65.69
2018-08-03T00:29:00.570Z,65.31
2018-08-03T00:31:31.094Z,65.81
2018-08-03T00:34:01.709Z,65.44
2018-08-03T00:36:32.693Z,65.86
2018-08-03T00:39:04.082Z,65.94
2018-08-03T00:41:34.662Z,66.10
2018-08-03T00:44:06.181Z,65.96
2018-08-03T00:46:36.494Z,66.23
2018-08-03T00:49:07.355Z,66.43
2018-08-03T00:51:38.374Z,66.05
2018-08-03T00:54:09.271Z,66.68
2018-08-03T00:56:40.636Z,66.02
2018-08-03T00:59:11.532Z,66.23
2018-08-03T01:01:42.490Z,66.62
2018-08-03T01:04:13.360Z,67.73
2018-08-03T01:06:44.360Z,67.57
2018-08-03T01:09:15.315Z,68.11
2018-08-03T01:11:46.356Z,67.74
2018-08-03T01:14:17.269Z,68.22
2018-08-03T01:16:48.282Z,68.65
2018-08-03T01:19:18.225Z,68.20
2018-08-03T01:21:49.747Z,68.91
2018-08-03T01:24:20.495Z,68.46
2018-08-03T01:26:51.378Z,68.38
2018-08-03T01:29:22.333Z,68.87
2018-08-03T01:31:53.954Z,68.20
2018-08-03T01:34:24.533Z,68.57
2018-08-03T01:36:55.434Z,68.73
2018-08-03T01:39:26.429Z,68.16
2018-08-03T01:41:57.351Z,68.84
2018-08-03T01:44:28.298Z,68.21
2018-08-03T01:46:59.242Z,68.53
2018-08-03T01:49:30.575Z,68.47
2018-08-03T01:52:01.451Z,68.61
2018-08-03T01:54:32.301Z,68.65
2018-08-03T01:57:03.253Z,68.47
2018-08-03T01:59:34.545Z,67.98
2018-08-03T02:02:05.650Z,68.49
2018-08-03T02:04:36.583Z,68.58
2018-08-03T02:07:06.582Z,68.10
2018-08-03T02:09:37.452Z,68.50
2018-08-03T02:12:08.378Z,68.03
2018-08-03T02:14:39.363Z,68.69
2018-08-03T02:17:10.418Z,68.23
2018-08-03T02:19:41.290Z,68.59
2018-08-03T02:22:12.269Z,68.58
2018-08-03T02:24:43.586Z,68.10
2018-08-03T02:27:14.494Z,68.35
2018-08-03T02:29:45.344Z,68.38
2018-08-03T02:32:16.424Z,68.96
2018-08-03T02:34:47.314Z,68.72
2018-08-03T02:37:18.594Z,68.89
2018-08-03T02:39:49.430Z,68.49
2018-08-03T02:42:20.472Z,68.95
2018-08-03T02:44:51.405Z,68.66
2018-08-03T02:47:22.413Z,68.65
2018-08-03T02:49:53.332Z,68.76
2018-08-03T02:52:24.322Z,69.08
2018-08-03T02:54:56.951Z,69.26
2018-08-03T02:57:26.813Z,68.67
2018-08-03T02:59:57.580Z,69.19
2018-08-03T03:02:28.526Z,69.38
2018-08-03T03:04:59.348Z,68.96
2018-08-03T03:07:30.410Z,69.56
2018-08-03T03:10:00.299Z,69.45
2018-08-03T03:12:31.261Z,69.03
2018-08-03T03:15:02.248Z,69.04
2018-08-03T03:17:33.579Z,69.00
2018-08-03T03:20:04.680Z,69.29
2018-08-03T03:22:35.594Z,69.58
2018-08-03T03:25:06.562Z,69.90
2018-08-03T03:27:37.482Z,69.86
2018-08-03T03:30:09.382Z,69.79
2018-08-03T03:32:39.359Z,70.21
2018-08-03T03:35:10.454Z,69.60
2018-08-03T03:37:42.835Z,70.34
2018-08-03T03:40:12.734Z,70.60
2018-08-03T03:42:43.679Z,71.51
2018-08-03T03:45:14.559Z,71.58
2018-08-03T03:47:45.469Z,71.38
2018-08-03T03:50:16.345Z,71.65
2018-08-03T03:52:48.986Z,71.51
2018-08-03T03:55:18.906Z,72.09
2018-08-03T03:57:49.606Z,71.55
2018-08-03T04:00:20.909Z,71.76
2018-08-03T04:02:51.566Z,71.53
2018-08-03T04:05:22.458Z,71.68
2018-08-03T04:07:53.534Z,71.81
2018-08-03T04:10:24.500Z,72.11
2018-08-03T04:12:55.442Z,73.06
2018-08-03T04:15:27.097Z,72.32
2018-08-03T04:17:57.662Z,72.70
2018-08-03T04:20:28.551Z,72.57
2018-08-03T04:22:59.542Z,72.61
2018-08-03T04:25:30.899Z,72.68
2018-08-03T04:28:01.711Z,73.40
2018-08-03T04:30:32.565Z,72.66
2018-08-03T04:33:03.522Z,72.61
2018-08-03T04:35:34.367Z,72.69
2018-08-03T04:38:05.295Z,72.95
2018-08-03T04:40:36.648Z,72.78
2018-08-03T04:43:07.838Z,72.75
2018-08-03T04:45:38.505Z,73.42
2018-08-03T04:48:09.347Z,72.87
2018-08-03T04:50:41.790Z,73.21
2018-08-03T04:53:11.639Z,73.32
2018-08-03T04:55:42.658Z,73.57
2018-08-03T04:58:13.488Z,72.70
2018-08-03T05:00:44.380Z,72.93
2018-08-03T05:03:15.280Z,73.62
2018-08-03T05:05:46.276Z,73.59
2018-08-03T05:08:17.628Z,73.30
2018-08-03T05:10:48.493Z,72.83
2018-08-03T05:13:19.331Z,73.40
2018-08-03T05:15:50.301Z,74.16
2018-08-03T05:18:21.598Z,73.30
2018-08-03T05:20:52.520Z,72.96
2018-08-03T05:23:23.425Z,74.96
2018-08-03T05:25:54.368Z,74.80
2018-08-03T05:28:25.266Z,74.00
2018-08-03T05:30:56.667Z,73.40
2018-08-03T05:33:27.514Z,72.92
2018-08-03T05:35:58.568Z,74.61
2018-08-03T05:38:29.630Z,72.93
2018-08-03T05:41:00.568Z,73.96
2018-08-03T05:43:31.403Z,72.70
2018-08-03T05:46:02.371Z,72.93
2018-08-03T05:48:33.401Z,72.56
2018-08-03T05:51:05.880Z,73.04
2018-08-03T05:53:35.712Z,72.10
2018-08-03T05:56:06.657Z,72.49
2018-08-03T05:58:37.570Z,71.76
2018-08-03T06:01:08.865Z,71.91
2018-08-03T06:03:39.908Z,72.04
2018-08-03T06:06:10.629Z,72.07
2018-08-03T06:08:41.470Z,72.95
2018-08-03T06:11:12.401Z,73.66
2018-08-03T06:13:43.304Z,72.57
2018-08-03T06:16:14.789Z,72.30
2018-08-03T06:18:45.475Z,71.41
2018-08-03T06:21:16.453Z,71.33
2018-08-03T06:23:48.239Z,71.59
2018-08-03T06:26:18.246Z,70.69
2018-08-03T06:28:49.559Z,70.27
2018-08-03T06:31:20.195Z,70.39
2018-08-03T06:33:50.587Z,70.08
2018-08-03T06:36:21.492Z,69.38
2018-08-03T06:38:52.338Z,69.35
2018-08-03T06:41:23.309Z,69.01
2018-08-03T06:43:54.648Z,68.44
2018-08-03T06:46:25.561Z,68.97
2018-08-03T06:48:56.442Z,69.04
2018-08-03T06:51:27.395Z,67.91
2018-08-03T06:53:58.283Z,67.22
2018-08-03T06:56:29.389Z,66.77
2018-08-03T06:59:00.247Z,66.08
2018-08-03T07:01:31.681Z,66.21
2018-08-03T07:04:02.511Z,65.54
2018-08-03T07:06:33.428Z,65.44
2018-08-03T07:09:05.272Z,65.12
2018-08-03T07:11:35.562Z,64.43
2018-08-03T07:14:07.425Z,64.50
2018-08-03T07:16:37.438Z,64.41
2018-08-03T07:19:08.349Z,64.26
2018-08-03T07:21:39.317Z,64.62
2018-08-03T07:24:11.175Z,64.63
2018-08-03T07:26:41.576Z,64.22
2018-08-03T07:29:12.484Z,63.57
2018-08-03T07:31:42.486Z,63.55
2018-08-03T07:34:14.269Z,63.50
2018-08-03T07:36:45.322Z,63.31
2018-08-03T07:39:16.274Z,63.46
2018-08-03T07:41:47.763Z,63.35
2018-08-03T07:44:18.721Z,62.81
2018-08-03T07:46:49.632Z,63.07
2018-08-03T07:49:19.543Z,63.62
2018-08-03T07:51:51.234Z,63.34
2018-08-03T07:54:21.638Z,62.62
2018-08-03T07:56:52.513Z,62.92
2018-08-03T07:59:23.374Z,62.95
2018-08-03T08:01:54.406Z,64.30
2018-08-03T08:04:25.318Z,63.28
2018-08-03T08:06:56.445Z,62.53
2018-08-03T08:09:27.318Z,62.51
2018-08-03T08:11:58.446Z,62.48
2018-08-03T08:14:29.350Z,61.01
2018-08-03T08:17:00.673Z,61.23
2018-08-03T08:19:31.525Z,60.47
2018-08-03T08:22:02.410Z,60.20
2018-08-03T08:24:33.322Z,59.25
2018-08-03T08:27:05.078Z,59.33
2018-08-03T08:29:35.596Z,58.94
2018-08-03T08:32:07.426Z,58.64
2018-08-03T08:34:37.371Z,58.35
2018-08-03T08:37:08.312Z,57.70
2018-08-03T08:39:39.272Z,57.76
2018-08-03T08:42:10.310Z,57.12
2018-08-03T08:44:41.268Z,56.88
2018-08-03T08:47:12.652Z,55.65
2018-08-03T08:49:43.635Z,55.71
2018-08-03T08:52:14.494Z,55.16
2018-08-03T08:54:45.461Z,54.04
2018-08-03T08:57:16.342Z,53.35
2018-08-03T08:59:47.253Z,53.12
2018-08-03T09:02:18.701Z,52.24
2018-08-03T09:04:49.611Z,50.83
2018-08-03T09:07:20.609Z,51.17
2018-08-03T09:09:51.439Z,49.14
2018-08-03T09:12:22.294Z,49.48
2018-08-03T09:14:53.809Z,48.78
2018-08-03T09:17:24.465Z,48.56
2018-08-03T09:19:55.329Z,47.48
2018-08-03T09:22:26.385Z,47.59
2018-08-03T09:24:57.273Z,47.58
2018-08-03T09:27:28.386Z,46.68
2018-08-03T09:29:59.229Z,45.42
2018-08-03T09:32:30.607Z,45.86
2018-08-03T09:35:01.441Z,45.13
2018-08-03T09:37:32.401Z,44.51
2018-08-03T09:40:03.358Z,45.86
2018-08-03T09:42:34.304Z,46.09
2018-08-03T09:45:05.890Z,45.81
2018-08-03T09:47:36.493Z,45.76
2018-08-03T09:50:07.403Z,45.13
2018-08-03T09:52:38.335Z,43.82
2018-08-03T09:55:09.195Z,43.54
2018-08-03T09:57:40.466Z,42.22
2018-08-03T10:00:16.321Z,42.02
2018-08-03T10:02:47.023Z,42.64
2018-08-03T10:05:16.922Z,42.33
2018-08-03T10:07:46.848Z,41.16
2018-08-03T10:10:18.627Z,42.22
2018-08-03T10:12:48.563Z,40.53
2018-08-03T10:15:19.208Z,40.27
2018-08-03T10:17:49.238Z,40.22
2018-08-03T10:20:19.220Z,40.97
2018-08-03T10:22:50.621Z,39.73
2018-08-03T10:25:21.749Z,38.50
2018-08-03T10:27:52.516Z,38.35
2018-08-03T10:30:23.412Z,38.40
2018-08-03T10:32:54.274Z,36.49
2018-08-03T10:35:26.527Z,36.92
2018-08-03T10:37:56.415Z,37.51
2018-08-03T10:40:27.303Z,37.50
2018-08-03T10:42:58.363Z,36.07
2018-08-03T10:45:29.340Z,36.84
2018-08-03T10:48:01.173Z,37.40
2018-08-03T10:50:31.198Z,37.17
2018-08-03T10:53:02.593Z,35.40
2018-08-03T10:55:33.619Z,35.50
2018-08-03T10:58:04.504Z,35.03
2018-08-03T11:00:35.371Z,35.02
2018-08-03T11:03:06.384Z,35.45
2018-08-03T11:05:38.296Z,35.52
2018-08-03T11:08:08.245Z,34.73
2018-08-03T11:10:39.648Z,34.17
2018-08-03T11:13:10.490Z,34.12
2018-08-03T11:15:41.295Z,34.79
2018-08-03T11:18:12.267Z,34.61
2018-08-03T11:20:43.289Z,34.12
2018-08-03T11:23:14.361Z,35.12
2018-08-03T11:25:45.250Z,35.62
2018-08-03T11:28:16.256Z,36.36
2018-08-03T11:30:47.297Z,36.50
2018-08-03T11:33:18.265Z,37.03
2018-08-03T11:35:49.259Z,36.39
2018-08-03T11:38:20.313Z,35.97
2018-08-03T11:40:51.652Z,36.45
2018-08-03T11:43:22.561Z,36.54
2018-08-03T11:45:53.430Z,36.46
2018-08-03T11:48:24.263Z,35.76
2018-08-03T11:50:55.325Z,35.51
2018-08-03T11:53:26.300Z,35.21
2018-08-03T11:55:57.561Z,33.97
2018-08-03T11:58:28.449Z,33.35
2018-08-03T12:01:00.359Z,33.53
2018-08-03T12:03:30.274Z,33.23
2018-08-03T12:06:01.255Z,33.50
2018-08-03T12:08:32.408Z,32.97
2018-08-03T12:11:03.181Z,32.74
2018-08-03T12:13:34.562Z,33.31
2018-08-03T12:16:05.422Z,34.22
2018-08-03T12:18:36.305Z,35.97
2018-08-03T12:21:07.947Z,35.84
2018-08-03T12:23:38.603Z,37.33
2018-08-03T12:26:09.525Z,38.00
2018-08-03T12:28:40.391Z,38.77
2018-08-03T12:31:11.312Z,38.43
2018-08-03T12:33:42.362Z,39.05
2018-08-03T12:36:13.255Z,39.24
2018-08-03T12:38:44.279Z,39.61
2018-08-03T12:41:15.156Z,39.79
2018-08-03T12:43:46.617Z,39.85
2018-08-03T12:46:17.422Z,40.51
2018-08-03T12:48:48.285Z,40.40
2018-08-03T12:51:19.576Z,39.89
2018-08-03T12:53:50.885Z,39.66
2018-08-03T12:56:21.470Z,39.98
2018-08-03T12:58:52.505Z,40.24
2018-08-03T13:01:23.390Z,40.88
2018-08-03T13:03:54.547Z,40.88
2018-08-03T13:06:25.729Z,41.46
2018-08-03T13:08:56.773Z,40.85
2018-08-03T13:11:27.506Z,40.98
2018-08-03T13:13:58.475Z,40.78
2018-08-03T13:16:30.426Z,41.19
2018-08-03T13:19:00.454Z,40.52
2018-08-03T13:21:37.657Z,40.57
2018-08-03T13:24:07.735Z,40.75
2018-08-03T13:26:37.710Z,40.47
2018-08-03T13:29:07.764Z,40.31
2018-08-03T13:31:37.582Z,40.80
2018-08-03T13:34:07.758Z,40.04
2018-08-03T13:36:37.674Z,40.15
2018-08-03T13:39:10.001Z,39.49
2018-08-03T13:41:40.169Z,39.74
2018-08-03T13:44:10.296Z,38.96
2018-08-03T13:46:41.090Z,37.83
2018-08-03T13:49:11.776Z,36.15
2018-08-03T13:51:42.577Z,37.74
2018-08-03T13:54:13.518Z,37.12
2018-08-03T13:56:44.450Z,36.26
2018-08-03T13:59:15.466Z,35.50
2018-08-03T14:01:56.686Z,34.68
2018-08-03T14:04:26.642Z,34.09
2018-08-03T14:06:56.654Z,33.53
2018-08-03T14:09:26.605Z,33.02
2018-08-03T14:11:56.603Z,32.54
2018-08-03T14:14:26.577Z,32.49
2018-08-03T14:16:56.545Z,31.82
2018-08-03T14:19:26.779Z,31.89
2018-08-03T14:21:56.765Z,30.50
2018-08-03T14:24:27.004Z,31.36
2018-08-03T14:26:57.146Z,30.57
2018-08-03T14:29:28.049Z,30.11
2018-08-03T14:31:58.170Z,30.38
2018-08-03T14:34:28.958Z,29.91
2018-08-03T14:36:59.594Z,29.97
2018-08-03T14:39:30.676Z,29.83
2018-08-03T14:42:01.831Z,30.15
2018-08-03T14:44:32.728Z,30.38
2018-08-03T14:47:04.240Z,30.43
2018-08-03T14:49:36.598Z,30.06
2018-08-03T14:52:07.853Z,29.79
2018-08-03T14:54:38.739Z,29.97
2018-08-03T14:57:09.548Z,30.37
2018-08-03T14:59:40.652Z,29.99
2018-08-03T15:02:10.732Z,29.40
2018-08-03T15:04:40.934Z,29.34
2018-08-03T15:07:11.035Z,30.23
2018-08-03T15:09:42.110Z,30.06
2018-08-03T15:12:13.906Z,29.58
2018-08-03T15:14:43.997Z,29.85
2018-08-03T15:17:14.883Z,29.95
2018-08-03T15:19:46.384Z,29.89
2018-08-03T15:22:16.927Z,29.51
2018-08-03T15:24:48.089Z,29.90
2018-08-03T15:27:19.084Z,29.16
2018-08-03T15:29:49.730Z,29.56
2018-08-03T15:32:20.432Z,29.35
2018-08-03T15:34:51.366Z,28.86
2018-08-03T15:37:22.249Z,28.47
2018-08-03T15:39:53.490Z,28.54
2018-08-03T15:42:24.479Z,29.36
2018-08-03T15:44:56.464Z,29.58
2018-08-03T15:47:26.551Z,29.29
2018-08-03T15:49:57.539Z,28.82
2018-08-03T15:52:28.487Z,28.59
2018-08-03T15:54:59.417Z,28.45
2018-08-03T15:57:30.339Z,28.14
2018-08-03T16:00:01.292Z,28.87
2018-08-03T16:02:32.289Z,28.86
2018-08-03T16:05:03.287Z,28.92
2018-08-03T16:07:34.231Z,28.26
2018-08-03T16:10:06.089Z,28.50
2018-08-03T16:12:36.612Z,28.47
2018-08-03T16:15:07.733Z,28.63
2018-08-03T16:17:38.544Z,28.29
2018-08-03T16:20:09.821Z,28.33
2018-08-03T16:22:40.413Z,27.77
2018-08-03T16:25:11.418Z,28.82
2018-08-03T16:27:42.446Z,28.67
2018-08-03T16:30:13.458Z,28.72
2018-08-03T16:32:44.291Z,28.60
2018-08-03T16:35:15.447Z,28.29
2018-08-03T16:37:46.918Z,28.35
2018-08-03T16:40:17.665Z,29.38
2018-08-03T16:42:48.491Z,29.50
2018-08-03T16:45:19.441Z,29.71
2018-08-03T16:47:50.228Z,29.73
2018-08-03T16:50:21.648Z,30.45
2018-08-03T16:52:52.450Z,31.02
2018-08-03T16:55:23.441Z,30.99
2018-08-03T16:57:54.623Z,30.99
2018-08-03T17:00:25.485Z,31.00
2018-08-03T17:02:56.334Z,31.33
2018-08-03T17:05:27.389Z,31.41
2018-08-03T17:07:58.577Z,31.78
2018-08-03T17:10:29.466Z,32.21
2018-08-03T17:13:00.281Z,32.34
2018-08-03T17:15:31.252Z,32.40
2018-08-03T17:18:02.135Z,32.39
2018-08-03T17:20:33.533Z,32.72
2018-08-03T17:23:04.358Z,33.10
2018-08-03T17:25:35.655Z,33.40
2018-08-03T17:28:06.592Z,34.42
2018-08-03T17:30:37.543Z,34.51
2018-08-03T17:33:08.404Z,34.70
2018-08-03T17:35:39.453Z,35.19
2018-08-03T17:38:10.454Z,35.80
2018-08-03T17:40:41.337Z,36.52
2018-08-03T17:43:12.272Z,36.73
2018-08-03T17:45:43.322Z,37.85
2018-08-03T17:48:14.304Z,37.57
2018-08-03T17:50:45.312Z,37.46
2018-08-03T17:53:16.304Z,38.83
2018-08-03T17:55:47.339Z,38.41
2018-08-03T17:58:18.278Z,39.26
2018-08-03T18:00:49.445Z,39.38
2018-08-03T18:03:21.081Z,39.25
2018-08-03T18:05:51.614Z,40.11
2018-08-03T18:08:22.514Z,40.03
2018-08-03T18:10:53.433Z,40.83
2018-08-03T18:13:24.285Z,41.23
2018-08-03T18:15:55.417Z,41.17
2018-08-03T18:18:26.620Z,41.94
2018-08-03T18:20:57.529Z,42.71
2018-08-03T18:23:28.389Z,42.29
2018-08-03T18:25:59.421Z,42.96
2018-08-03T18:28:30.273Z,42.46
2018-08-03T18:31:01.289Z,43.52
2018-08-03T18:33:34.071Z,43.26
2018-08-03T18:36:03.958Z,43.61
2018-08-03T18:38:34.609Z,44.09
2018-08-03T18:41:05.433Z,44.21
2018-08-03T18:43:36.322Z,44.36
2018-08-03T18:46:07.410Z,44.10
2018-08-03T18:48:38.315Z,44.96
2018-08-03T18:51:09.481Z,45.16
2018-08-03T18:53:40.299Z,44.59
2018-08-03T18:56:11.369Z,45.16
2018-08-03T18:58:42.213Z,44.80
2018-08-03T19:01:13.645Z,45.39
2018-08-03T19:03:44.521Z,45.47
2018-08-03T19:06:15.516Z,46.26
2018-08-03T19:08:46.423Z,46.03
2018-08-03T19:11:17.367Z,46.61
2018-08-03T19:13:48.351Z,46.64
2018-08-03T19:16:19.344Z,46.99
2018-08-03T19:18:50.287Z,47.07
2018-08-03T19:21:21.340Z,47.02
2018-08-03T19:23:52.332Z,46.78
2018-08-03T19:26:23.426Z,47.42
2018-08-03T19:28:54.366Z,47.89
2018-08-03T19:31:25.154Z,47.95
2018-08-03T19:33:55.842Z,48.66
2018-08-03T19:36:26.553Z,48.47
2018-08-03T19:38:57.450Z,48.73
2018-08-03T19:41:28.540Z,49.46
2018-08-03T19:43:59.365Z,49.33
2018-08-03T19:46:30.277Z,50.11
2018-08-03T19:49:01.662Z,50.45
2018-08-03T19:51:32.641Z,50.49
2018-08-03T19:54:03.484Z,50.29
2018-08-03T19:56:35.118Z,50.06
2018-08-03T19:59:05.723Z,50.36
2018-08-03T20:01:36.593Z,51.09
2018-08-03T20:04:07.957Z,51.36
2018-08-03T20:06:39.387Z,52.56
2018-08-03T20:09:12.304Z,52.96
2018-08-03T20:11:42.278Z,52.78
2018-08-03T20:14:12.150Z,53.21
2018-08-03T20:16:42.728Z,53.25
2018-08-03T20:19:13.749Z,53.81
2018-08-03T20:21:44.492Z,53.48
2018-08-03T20:24:15.407Z,53.67
2018-08-03T20:26:46.394Z,53.31
2018-08-03T20:29:17.432Z,53.70
2018-08-03T20:31:48.216Z,53.62
2018-08-03T20:34:18.260Z,53.86
2018-08-03T20:36:49.740Z,53.91
2018-08-03T20:39:20.509Z,53.63
2018-08-03T20:41:52.661Z,53.35
2018-08-03T20:44:22.598Z,53.42
2018-08-03T20:46:53.567Z,53.14
2018-08-03T20:49:24.991Z,54.14
2018-08-03T20:51:55.796Z,53.63
2018-08-03T20:54:26.630Z,53.63
2018-08-03T20:56:57.675Z,53.88
2018-08-03T20:59:28.641Z,54.12
2018-08-03T21:01:59.566Z,53.69
2018-08-03T21:04:30.656Z,54.39
2018-08-03T21:07:01.620Z,54.32
2018-08-03T21:09:32.993Z,54.57
2018-08-03T21:12:03.887Z,54.56
2018-08-03T21:14:34.562Z,54.63
2018-08-03T21:17:05.456Z,54.96
2018-08-03T21:19:36.437Z,55.23
2018-08-03T21:22:07.372Z,55.63
2018-08-03T21:24:38.311Z,56.03
2018-08-03T21:27:09.344Z,55.40
2018-08-03T21:29:40.435Z,55.82
2018-08-03T21:32:11.960Z,56.22
2018-08-03T21:34:42.554Z,56.00
2018-08-03T21:37:13.508Z,56.68
2018-08-03T21:39:44.383Z,56.71
2018-08-03T21:42:15.382Z,57.16
2018-08-03T21:44:46.861Z,58.02
2018-08-03T21:47:17.576Z,57.13
2018-08-03T21:49:48.433Z,56.62
2018-08-03T21:52:19.332Z,57.30
2018-08-03T22:14:49.132Z,57.02
2018-08-03T22:17:19.100Z,56.86
2018-08-03T22:19:48.932Z,57.00
2018-08-03T22:22:18.810Z,57.26
2018-08-03T22:24:48.642Z,57.46
2018-08-03T22:27:18.676Z,57.25
2018-08-03T22:29:48.714Z,57.59
2018-08-03T22:32:18.609Z,57.53
2018-08-03T22:34:48.868Z,57.82
2018-08-03T22:37:19.024Z,57.82
2018-08-03T22:39:48.853Z,58.01
2018-08-03T22:42:18.895Z,58.14
2018-08-03T22:44:48.787Z,58.21
2018-08-03T22:47:19.452Z,58.36
2018-08-03T22:49:49.355Z,58.73
2018-08-03T22:52:19.711Z,59.37
2018-08-03T22:54:49.876Z,59.44
2018-08-03T22:57:19.843Z,59.13
2018-08-03T22:59:49.897Z,59.55
2018-08-03T23:02:20.044Z,59.53
2018-08-03T23:04:49.933Z,59.48
2018-08-03T23:07:19.889Z,60.08
2018-08-03T23:09:49.846Z,59.59
2018-08-03T23:12:19.947Z,59.75
2018-08-03T23:14:49.834Z,59.83
2018-08-03T23:17:19.983Z,60.24
2018-08-03T23:19:49.862Z,60.05
2018-08-03T23:22:19.906Z,60.36
2018-08-03T23:24:49.793Z,60.58
2018-08-03T23:27:19.766Z,60.57
2018-08-03T23:29:49.812Z,60.58
2018-08-03T23:32:19.702Z,60.68
2018-08-03T23:34:49.706Z,60.92
2018-08-03T23:37:20.188Z,60.92
2018-08-03T23:39:50.032Z,60.97
2018-08-03T23:42:20.046Z,61.65
2018-08-03T23:44:49.964Z,61.39
2018-08-03T23:47:19.966Z,61.50
2018-08-03T23:49:50.026Z,61.45
2018-08-03T23:52:19.996Z,62.33
2018-08-03T23:54:49.941Z,61.77
2018-08-03T23:57:19.916Z,62.51
2018-08-03T23:59:49.880Z,62.32
